sensor_id;sensor_type;location;lat;lon;timestamp;temperature;humidity
21167;DHT22;10741;52.272;9.580;2022-12-18T00:01:36;-5.30;99.90
21167;DHT22;10741;52.272;9.580;2022-12-18T00:04:04;-5.30;99.90
21167;DHT22;10741;52.272;9.580;2022-12-18T00:06:31;-5.20;99.90
21167;DHT22;10741;52.272;9.580;2022-12-18T00:08:59;-5.10;99.90
21167;DHT22;10741;52.272;9.580;2022-12-18T00:11:27;-5.10;99.90
21167;DHT22;10741;52.272;9.580;2022-12-18T00:13:55;-5.00;99.90
21167;DHT22;10741;52.272;9.580;2022-12-18T00:16:23;-4.90;99.90
21167;DHT22;10741;52.272;9.580;2022-12-18T00:18:51;-5.00;99.90
21167;DHT22;10741;52.272;9.580;2022-12-18T00:21:18;-4.90;99.90
21167;DHT22;10741;52.272;9.580;2022-12-18T00:23:44;-4.90;99.90
21167;DHT22;10741;52.272;9.580;2022-12-18T00:26:19;-5.00;99.90
21167;DHT22;10741;52.272;9.580;2022-12-18T00:28:45;-5.10;99.90
21167;DHT22;10741;52.272;9.580;2022-12-18T00:31:14;-5.10;99.90
21167;DHT22;10741;52.272;9.580;2022-12-18T00:33:40;-5.10;99.90
21167;DHT22;10741;52.272;9.580;2022-12-18T00:36:12;-5.00;99.90
21167;DHT22;10741;52.272;9.580;2022-12-18T00:38:38;-5.10;99.90
21167;DHT22;10741;52.272;9.580;2022-12-18T00:41:04;-5.10;99.90
21167;DHT22;10741;52.272;9.580;2022-12-18T00:43:30;-5.10;99.90
21167;DHT22;10741;52.272;9.580;2022-12-18T00:45:56;-5.10;99.90
21167;DHT22;10741;52.272;9.580;2022-12-18T00:48:22;-5.10;99.90
21167;DHT22;10741;52.272;9.580;2022-12-18T00:50:48;-5.00;99.90
21167;DHT22;10741;52.272;9.580;2022-12-18T00:53:15;-5.00;99.90
21167;DHT22;10741;52.272;9.580;2022-12-18T00:55:41;-5.10;99.90
21167;DHT22;10741;52.272;9.580;2022-12-18T00:58:08;-5.10;99.90
21167;DHT22;10741;52.272;9.580;2022-12-18T01:00:35;-5.20;99.90
21167;DHT22;10741;52.272;9.580;2022-12-18T01:03:00;-5.30;99.90
21167;DHT22;10741;52.272;9.580;2022-12-18T01:05:26;-5.30;99.90
21167;DHT22;10741;52.272;9.580;2022-12-18T01:07:52;-5.40;99.90
21167;DHT22;10741;52.272;9.580;2022-12-18T01:10:18;-5.30;99.90
21167;DHT22;10741;52.272;9.580;2022-12-18T01:12:44;-5.30;99.90
21167;DHT22;10741;52.272;9.580;2022-12-18T01:15:12;-5.40;99.90
21167;DHT22;10741;52.272;9.580;2022-12-18T01:17:38;-5.40;99.90
21167;DHT22;10741;52.272;9.580;2022-12-18T01:20:04;-5.50;99.90
21167;DHT22;10741;52.272;9.580;2022-12-18T01:22:30;-5.40;99.90
21167;DHT22;10741;52.272;9.580;2022-12-18T01:24:58;-5.40;99.90
21167;DHT22;10741;52.272;9.580;2022-12-18T01:27:24;-5.40;99.90
21167;DHT22;10741;52.272;9.580;2022-12-18T01:29:50;-5.30;99.90
21167;DHT22;10741;52.272;9.580;2022-12-18T01:32:16;-5.20;99.90
21167;DHT22;10741;52.272;9.580;2022-12-18T01:34:42;-5.10;99.90
21167;DHT22;10741;52.272;9.580;2022-12-18T01:37:07;-5.00;99.90
21167;DHT22;10741;52.272;9.580;2022-12-18T01:39:33;-4.80;99.90
21167;DHT22;10741;52.272;9.580;2022-12-18T01:42:01;-4.80;99.90
21167;DHT22;10741;52.272;9.580;2022-12-18T01:50:18;-4.70;99.90
21167;DHT22;10741;52.272;9.580;2022-12-18T01:52:51;-4.50;99.90
21167;DHT22;10741;52.272;9.580;2022-12-18T01:55:22;-4.20;99.90
21167;DHT22;10741;52.272;9.580;2022-12-18T01:57:52;-4.20;99.90
21167;DHT22;10741;52.272;9.580;2022-12-18T02:00:20;-4.10;99.90
21167;DHT22;10741;52.272;9.580;2022-12-18T02:02:47;-4.00;99.90
21167;DHT22;10741;52.272;9.580;2022-12-18T02:05:16;-3.60;99.90
21167;DHT22;10741;52.272;9.580;2022-12-18T02:13:12;-3.20;99.90
21167;DHT22;10741;52.272;9.580;2022-12-18T02:15:48;-3.10;99.90
21167;DHT22;10741;52.272;9.580;2022-12-18T02:18:44;-3.00;99.90
21167;DHT22;10741;52.272;9.580;2022-12-18T02:21:16;-3.00;99.90
21167;DHT22;10741;52.272;9.580;2022-12-18T02:26:53;-3.10;99.90
21167;DHT22;10741;52.272;9.580;2022-12-18T02:29:21;-3.10;99.90
21167;DHT22;10741;52.272;9.580;2022-12-18T02:31:58;-3.20;99.90
21167;DHT22;10741;52.272;9.580;2022-12-18T02:34:28;-3.30;99.90
21167;DHT22;10741;52.272;9.580;2022-12-18T02:36:56;-3.20;99.90
21167;DHT22;10741;52.272;9.580;2022-12-18T02:39:25;-3.30;99.90
21167;DHT22;10741;52.272;9.580;2022-12-18T02:41:52;-3.20;99.90
21167;DHT22;10741;52.272;9.580;2022-12-18T02:44:18;-3.20;99.90
21167;DHT22;10741;52.272;9.580;2022-12-18T02:46:50;-3.10;99.90
21167;DHT22;10741;52.272;9.580;2022-12-18T02:52:20;-3.20;99.90
21167;DHT22;10741;52.272;9.580;2022-12-18T02:55:01;-3.10;99.90
21167;DHT22;10741;52.272;9.580;2022-12-18T02:57:42;-3.10;99.90
21167;DHT22;10741;52.272;9.580;2022-12-18T03:00:23;-3.30;99.90
21167;DHT22;10741;52.272;9.580;2022-12-18T03:03:02;-3.50;99.90
21167;DHT22;10741;52.272;9.580;2022-12-18T03:05:45;-3.70;99.90
21167;DHT22;10741;52.272;9.580;2022-12-18T03:08:21;-4.10;99.90
21167;DHT22;10741;52.272;9.580;2022-12-18T03:11:03;-4.40;99.90
21167;DHT22;10741;52.272;9.580;2022-12-18T03:13:48;-4.60;99.90
21167;DHT22;10741;52.272;9.580;2022-12-18T03:16:24;-4.70;99.90
21167;DHT22;10741;52.272;9.580;2022-12-18T03:18:56;-4.90;99.90
21167;DHT22;10741;52.272;9.580;2022-12-18T03:21:27;-5.00;99.90
21167;DHT22;10741;52.272;9.580;2022-12-18T03:23:54;-5.20;99.90
21167;DHT22;10741;52.272;9.580;2022-12-18T03:26:23;-5.20;99.90
21167;DHT22;10741;52.272;9.580;2022-12-18T03:28:59;-5.20;99.90
21167;DHT22;10741;52.272;9.580;2022-12-18T03:31:29;-5.30;99.90
21167;DHT22;10741;52.272;9.580;2022-12-18T03:33:59;-5.30;99.90
21167;DHT22;10741;52.272;9.580;2022-12-18T03:36:26;-5.40;99.90
21167;DHT22;10741;52.272;9.580;2022-12-18T03:38:52;-5.50;99.90
21167;DHT22;10741;52.272;9.580;2022-12-18T03:41:29;-5.60;99.90
21167;DHT22;10741;52.272;9.580;2022-12-18T03:46:43;-5.60;99.90
21167;DHT22;10741;52.272;9.580;2022-12-18T03:52:25;-5.60;99.90
21167;DHT22;10741;52.272;9.580;2022-12-18T03:54:52;-5.70;99.90
21167;DHT22;10741;52.272;9.580;2022-12-18T03:57:23;-5.80;99.90
21167;DHT22;10741;52.272;9.580;2022-12-18T03:59:54;-5.80;99.90
21167;DHT22;10741;52.272;9.580;2022-12-18T04:02:23;-5.70;99.90
21167;DHT22;10741;52.272;9.580;2022-12-18T04:04:55;-5.70;99.90
21167;DHT22;10741;52.272;9.580;2022-12-18T04:07:22;-5.70;99.90
21167;DHT22;10741;52.272;9.580;2022-12-18T04:09:50;-5.60;99.90
21167;DHT22;10741;52.272;9.580;2022-12-18T04:12:17;-5.70;99.90
21167;DHT22;10741;52.272;9.580;2022-12-18T04:14:43;-5.70;99.90
21167;DHT22;10741;52.272;9.580;2022-12-18T04:17:09;-5.70;99.90
21167;DHT22;10741;52.272;9.580;2022-12-18T04:19:35;-5.80;99.90
21167;DHT22;10741;52.272;9.580;2022-12-18T04:22:00;-5.70;99.90
21167;DHT22;10741;52.272;9.580;2022-12-18T04:24:26;-5.70;99.90
21167;DHT22;10741;52.272;9.580;2022-12-18T04:26:52;-5.80;99.90
21167;DHT22;10741;52.272;9.580;2022-12-18T04:29:18;-5.80;99.90
21167;DHT22;10741;52.272;9.580;2022-12-18T04:31:43;-5.80;99.90
21167;DHT22;10741;52.272;9.580;2022-12-18T04:34:09;-5.80;99.90
21167;DHT22;10741;52.272;9.580;2022-12-18T04:36:35;-5.80;99.90
21167;DHT22;10741;52.272;9.580;2022-12-18T04:39:00;-5.80;99.90
21167;DHT22;10741;52.272;9.580;2022-12-18T04:41:26;-5.80;99.90
21167;DHT22;10741;52.272;9.580;2022-12-18T04:43:52;-5.90;99.90
21167;DHT22;10741;52.272;9.580;2022-12-18T04:46:18;-6.00;99.90
21167;DHT22;10741;52.272;9.580;2022-12-18T04:48:45;-6.10;99.90
21167;DHT22;10741;52.272;9.580;2022-12-18T04:51:12;-6.00;99.90
21167;DHT22;10741;52.272;9.580;2022-12-18T04:53:37;-6.00;99.90
21167;DHT22;10741;52.272;9.580;2022-12-18T04:56:11;-5.90;99.90
21167;DHT22;10741;52.272;9.580;2022-12-18T04:58:39;-5.60;99.90
21167;DHT22;10741;52.272;9.580;2022-12-18T05:01:05;-5.60;99.90
21167;DHT22;10741;52.272;9.580;2022-12-18T05:03:33;-5.60;99.90
21167;DHT22;10741;52.272;9.580;2022-12-18T05:05:59;-5.50;99.90
21167;DHT22;10741;52.272;9.580;2022-12-18T05:08:25;-5.20;99.90
21167;DHT22;10741;52.272;9.580;2022-12-18T05:11:01;-4.90;99.90
21167;DHT22;10741;52.272;9.580;2022-12-18T05:13:27;-5.00;99.90
21167;DHT22;10741;52.272;9.580;2022-12-18T05:15:54;-5.10;99.90
21167;DHT22;10741;52.272;9.580;2022-12-18T05:18:20;-5.30;99.90
21167;DHT22;10741;52.272;9.580;2022-12-18T05:20:46;-5.30;99.90
21167;DHT22;10741;52.272;9.580;2022-12-18T05:23:12;-5.30;99.90
21167;DHT22;10741;52.272;9.580;2022-12-18T05:25:38;-5.30;99.90
21167;DHT22;10741;52.272;9.580;2022-12-18T05:28:04;-5.40;99.90
21167;DHT22;10741;52.272;9.580;2022-12-18T05:30:30;-5.40;99.90
21167;DHT22;10741;52.272;9.580;2022-12-18T05:32:55;-5.50;99.90
21167;DHT22;10741;52.272;9.580;2022-12-18T05:35:21;-5.40;99.90
21167;DHT22;10741;52.272;9.580;2022-12-18T05:37:47;-5.50;99.90
21167;DHT22;10741;52.272;9.580;2022-12-18T05:40:12;-5.30;99.90
21167;DHT22;10741;52.272;9.580;2022-12-18T05:42:38;-5.30;99.90
21167;DHT22;10741;52.272;9.580;2022-12-18T05:45:05;-5.40;99.90
21167;DHT22;10741;52.272;9.580;2022-12-18T05:47:31;-5.30;99.90
21167;DHT22;10741;52.272;9.580;2022-12-18T05:49:56;-5.00;99.90
21167;DHT22;10741;52.272;9.580;2022-12-18T05:52:22;-5.00;99.90
21167;DHT22;10741;52.272;9.580;2022-12-18T05:54:48;-4.80;99.90
21167;DHT22;10741;52.272;9.580;2022-12-18T05:57:14;-4.70;99.90
21167;DHT22;10741;52.272;9.580;2022-12-18T05:59:40;-4.70;99.90
21167;DHT22;10741;52.272;9.580;2022-12-18T06:02:05;-4.50;99.90
21167;DHT22;10741;52.272;9.580;2022-12-18T06:04:32;-4.40;99.90
21167;DHT22;10741;52.272;9.580;2022-12-18T06:06:58;-4.40;99.90
21167;DHT22;10741;52.272;9.580;2022-12-18T06:09:24;-4.30;99.90
21167;DHT22;10741;52.272;9.580;2022-12-18T06:11:51;-4.40;99.90
21167;DHT22;10741;52.272;9.580;2022-12-18T06:14:17;-4.40;99.90
21167;DHT22;10741;52.272;9.580;2022-12-18T06:16:43;-4.50;99.90
21167;DHT22;10741;52.272;9.580;2022-12-18T06:19:15;-4.60;99.90
21167;DHT22;10741;52.272;9.580;2022-12-18T06:21:41;-4.60;99.90
21167;DHT22;10741;52.272;9.580;2022-12-18T06:24:07;-4.70;99.90
21167;DHT22;10741;52.272;9.580;2022-12-18T06:26:33;-4.70;99.90
21167;DHT22;10741;52.272;9.580;2022-12-18T06:28:59;-4.60;99.90
21167;DHT22;10741;52.272;9.580;2022-12-18T06:31:25;-4.70;99.90
21167;DHT22;10741;52.272;9.580;2022-12-18T06:33:50;-4.60;99.90
21167;DHT22;10741;52.272;9.580;2022-12-18T06:36:16;-4.60;99.90
21167;DHT22;10741;52.272;9.580;2022-12-18T06:38:43;-4.60;99.90
21167;DHT22;10741;52.272;9.580;2022-12-18T06:41:14;-4.60;99.90
21167;DHT22;10741;52.272;9.580;2022-12-18T06:43:40;-4.50;99.90
21167;DHT22;10741;52.272;9.580;2022-12-18T06:46:06;-4.50;99.90
21167;DHT22;10741;52.272;9.580;2022-12-18T06:48:32;-4.20;99.90
21167;DHT22;10741;52.272;9.580;2022-12-18T06:50:58;-4.40;99.90
21167;DHT22;10741;52.272;9.580;2022-12-18T06:53:25;-4.60;99.90
21167;DHT22;10741;52.272;9.580;2022-12-18T06:55:51;-4.90;99.90
21167;DHT22;10741;52.272;9.580;2022-12-18T06:58:17;-5.10;99.90
21167;DHT22;10741;52.272;9.580;2022-12-18T07:00:43;-5.20;99.90
21167;DHT22;10741;52.272;9.580;2022-12-18T07:03:09;-5.30;99.90
21167;DHT22;10741;52.272;9.580;2022-12-18T07:05:38;-5.30;99.90
21167;DHT22;10741;52.272;9.580;2022-12-18T07:08:04;-5.30;99.90
21167;DHT22;10741;52.272;9.580;2022-12-18T07:10:30;-5.40;99.90
21167;DHT22;10741;52.272;9.580;2022-12-18T07:12:56;-5.50;99.90
21167;DHT22;10741;52.272;9.580;2022-12-18T07:15:21;-5.50;99.90
21167;DHT22;10741;52.272;9.580;2022-12-18T07:17:47;-5.50;99.90
21167;DHT22;10741;52.272;9.580;2022-12-18T07:20:13;-5.60;99.90
21167;DHT22;10741;52.272;9.580;2022-12-18T07:22:38;-5.60;99.90
21167;DHT22;10741;52.272;9.580;2022-12-18T07:25:05;-5.40;99.90
21167;DHT22;10741;52.272;9.580;2022-12-18T07:27:30;-5.20;99.90
21167;DHT22;10741;52.272;9.580;2022-12-18T07:29:59;-5.20;99.90
21167;DHT22;10741;52.272;9.580;2022-12-18T07:32:25;-5.20;99.90
21167;DHT22;10741;52.272;9.580;2022-12-18T07:34:51;-5.10;99.90
21167;DHT22;10741;52.272;9.580;2022-12-18T07:37:16;-4.90;99.90
21167;DHT22;10741;52.272;9.580;2022-12-18T07:39:42;-4.60;99.90
21167;DHT22;10741;52.272;9.580;2022-12-18T07:42:08;-4.50;99.90
21167;DHT22;10741;52.272;9.580;2022-12-18T07:44:52;-4.50;99.90
21167;DHT22;10741;52.272;9.580;2022-12-18T07:47:18;-4.60;99.90
21167;DHT22;10741;52.272;9.580;2022-12-18T07:49:46;-4.60;99.90
21167;DHT22;10741;52.272;9.580;2022-12-18T07:52:12;-4.60;99.90
21167;DHT22;10741;52.272;9.580;2022-12-18T07:54:38;-4.60;99.90
21167;DHT22;10741;52.272;9.580;2022-12-18T07:57:06;-4.50;99.90
21167;DHT22;10741;52.272;9.580;2022-12-18T07:59:31;-4.50;99.90
21167;DHT22;10741;52.272;9.580;2022-12-18T08:01:57;-4.40;99.90
21167;DHT22;10741;52.272;9.580;2022-12-18T08:04:24;-4.30;99.90
21167;DHT22;10741;52.272;9.580;2022-12-18T08:06:50;-4.20;99.90
21167;DHT22;10741;52.272;9.580;2022-12-18T08:09:16;-4.20;99.90
21167;DHT22;10741;52.272;9.580;2022-12-18T08:11:42;-4.20;99.90
21167;DHT22;10741;52.272;9.580;2022-12-18T08:14:08;-4.30;99.90
21167;DHT22;10741;52.272;9.580;2022-12-18T08:16:34;-4.30;99.90
21167;DHT22;10741;52.272;9.580;2022-12-18T08:18:59;-4.40;99.90
21167;DHT22;10741;52.272;9.580;2022-12-18T08:21:29;-4.40;99.90
21167;DHT22;10741;52.272;9.580;2022-12-18T08:23:57;-4.40;99.90
21167;DHT22;10741;52.272;9.580;2022-12-18T08:26:25;-3.80;99.90
21167;DHT22;10741;52.272;9.580;2022-12-18T08:28:52;-2.70;99.90
21167;DHT22;10741;52.272;9.580;2022-12-18T08:31:19;-1.80;99.90
21167;DHT22;10741;52.272;9.580;2022-12-18T08:33:45;-1.10;99.90
21167;DHT22;10741;52.272;9.580;2022-12-18T08:36:13;-0.90;99.90
21167;DHT22;10741;52.272;9.580;2022-12-18T08:38:39;-1.20;99.90
21167;DHT22;10741;52.272;9.580;2022-12-18T08:41:07;-1.80;99.90
21167;DHT22;10741;52.272;9.580;2022-12-18T08:43:33;-2.20;99.90
21167;DHT22;10741;52.272;9.580;2022-12-18T08:46:21;-2.60;99.90
21167;DHT22;10741;52.272;9.580;2022-12-18T08:48:48;-2.90;99.90
21167;DHT22;10741;52.272;9.580;2022-12-18T08:51:16;-3.10;99.90
21167;DHT22;10741;52.272;9.580;2022-12-18T08:53:43;-3.20;99.90
21167;DHT22;10741;52.272;9.580;2022-12-18T08:56:10;-3.20;99.90
21167;DHT22;10741;52.272;9.580;2022-12-18T08:58:36;-3.20;99.90
21167;DHT22;10741;52.272;9.580;2022-12-18T09:01:06;-3.20;99.90
21167;DHT22;10741;52.272;9.580;2022-12-18T09:03:34;-3.20;99.90
21167;DHT22;10741;52.272;9.580;2022-12-18T09:06:00;-3.10;99.90
21167;DHT22;10741;52.272;9.580;2022-12-18T09:08:27;-3.00;99.90
21167;DHT22;10741;52.272;9.580;2022-12-18T09:10:53;-3.00;99.90
21167;DHT22;10741;52.272;9.580;2022-12-18T09:13:19;-2.90;99.90
21167;DHT22;10741;52.272;9.580;2022-12-18T09:15:49;-2.80;99.90
21167;DHT22;10741;52.272;9.580;2022-12-18T09:18:17;-2.60;99.90
21167;DHT22;10741;52.272;9.580;2022-12-18T09:20:44;-2.50;99.90
21167;DHT22;10741;52.272;9.580;2022-12-18T09:23:11;-2.40;99.90
21167;DHT22;10741;52.272;9.580;2022-12-18T09:25:37;-2.10;99.90
21167;DHT22;10741;52.272;9.580;2022-12-18T09:28:14;-1.90;99.90
21167;DHT22;10741;52.272;9.580;2022-12-18T09:30:45;-1.50;99.90
21167;DHT22;10741;52.272;9.580;2022-12-18T09:33:12;-1.10;99.90
21167;DHT22;10741;52.272;9.580;2022-12-18T09:35:38;-0.70;99.90
21167;DHT22;10741;52.272;9.580;2022-12-18T09:38:04;-0.70;99.90
21167;DHT22;10741;52.272;9.580;2022-12-18T09:40:36;-0.80;99.90
21167;DHT22;10741;52.272;9.580;2022-12-18T09:43:06;-1.00;99.90
21167;DHT22;10741;52.272;9.580;2022-12-18T09:45:42;-1.20;99.90
21167;DHT22;10741;52.272;9.580;2022-12-18T09:48:34;-1.30;99.90
21167;DHT22;10741;52.272;9.580;2022-12-18T09:51:28;-1.30;99.90
21167;DHT22;10741;52.272;9.580;2022-12-18T09:53:58;-1.20;99.90
21167;DHT22;10741;52.272;9.580;2022-12-18T09:56:28;-1.10;99.90
21167;DHT22;10741;52.272;9.580;2022-12-18T09:59:01;-1.00;99.90
21167;DHT22;10741;52.272;9.580;2022-12-18T10:01:28;-0.90;99.90
21167;DHT22;10741;52.272;9.580;2022-12-18T10:03:55;-1.00;99.90
21167;DHT22;10741;52.272;9.580;2022-12-18T10:11:35;-0.80;99.90
21167;DHT22;10741;52.272;9.580;2022-12-18T10:14:11;-0.70;99.90
21167;DHT22;10741;52.272;9.580;2022-12-18T10:19:28;-0.30;99.90
21167;DHT22;10741;52.272;9.580;2022-12-18T10:28:12;-0.70;99.90
21167;DHT22;10741;52.272;9.580;2022-12-18T10:30:40;-0.90;99.90
21167;DHT22;10741;52.272;9.580;2022-12-18T10:33:11;-0.90;99.90
21167;DHT22;10741;52.272;9.580;2022-12-18T10:35:41;-1.00;99.90
21167;DHT22;10741;52.272;9.580;2022-12-18T10:41:04;-1.00;99.90
21167;DHT22;10741;52.272;9.580;2022-12-18T10:48:48;-0.40;99.90
21167;DHT22;10741;52.272;9.580;2022-12-18T10:51:33;-0.20;99.90
21167;DHT22;10741;52.272;9.580;2022-12-18T10:56:28;0.30;99.90
21167;DHT22;10741;52.272;9.580;2022-12-18T11:01:24;0.50;99.90
21167;DHT22;10741;52.272;9.580;2022-12-18T11:06:21;0.10;99.90
21167;DHT22;10741;52.272;9.580;2022-12-18T11:09:18;0.00;99.90
21167;DHT22;10741;52.272;9.580;2022-12-18T11:11:52;0.00;99.90
21167;DHT22;10741;52.272;9.580;2022-12-18T11:14:24;0.00;99.90
21167;DHT22;10741;52.272;9.580;2022-12-18T11:16:51;0.10;99.90
21167;DHT22;10741;52.272;9.580;2022-12-18T11:21:49;0.30;99.90
21167;DHT22;10741;52.272;9.580;2022-12-18T11:24:26;0.30;99.90
21167;DHT22;10741;52.272;9.580;2022-12-18T11:26:54;0.20;99.90
21167;DHT22;10741;52.272;9.580;2022-12-18T11:29:27;0.00;99.90
21167;DHT22;10741;52.272;9.580;2022-12-18T11:34:44;-0.30;99.90
21167;DHT22;10741;52.272;9.580;2022-12-18T11:37:11;-0.30;99.90
21167;DHT22;10741;52.272;9.580;2022-12-18T11:39:45;-0.20;99.90
21167;DHT22;10741;52.272;9.580;2022-12-18T11:42:20;-0.10;99.90
21167;DHT22;10741;52.272;9.580;2022-12-18T11:44:58;0.00;99.90
21167;DHT22;10741;52.272;9.580;2022-12-18T11:50:01;0.10;99.90
21167;DHT22;10741;52.272;9.580;2022-12-18T11:52:39;0.10;99.90
21167;DHT22;10741;52.272;9.580;2022-12-18T11:55:21;0.10;99.90
21167;DHT22;10741;52.272;9.580;2022-12-18T12:00:24;0.10;99.90
21167;DHT22;10741;52.272;9.580;2022-12-18T12:03:24;0.10;99.90
21167;DHT22;10741;52.272;9.580;2022-12-18T12:08:59;0.00;99.90
21167;DHT22;10741;52.272;9.580;2022-12-18T12:24:53;-0.30;99.90
21167;DHT22;10741;52.272;9.580;2022-12-18T12:40:14;-0.20;99.90
21167;DHT22;10741;52.272;9.580;2022-12-18T12:42:47;-0.20;99.90
21167;DHT22;10741;52.272;9.580;2022-12-18T12:48:33;-0.10;99.90
21167;DHT22;10741;52.272;9.580;2022-12-18T12:51:04;-0.10;99.90
21167;DHT22;10741;52.272;9.580;2022-12-18T12:53:35;-0.10;99.90
21167;DHT22;10741;52.272;9.580;2022-12-18T12:56:03;-0.10;99.90
21167;DHT22;10741;52.272;9.580;2022-12-18T12:58:50;-0.10;99.90
21167;DHT22;10741;52.272;9.580;2022-12-18T13:01:23;-0.10;99.90
21167;DHT22;10741;52.272;9.580;2022-12-18T13:04:23;-0.10;99.90
21167;DHT22;10741;52.272;9.580;2022-12-18T13:07:04;-0.10;99.90
21167;DHT22;10741;52.272;9.580;2022-12-18T13:09:32;-0.10;99.90
21167;DHT22;10741;52.272;9.580;2022-12-18T13:12:11;-0.10;99.90
21167;DHT22;10741;52.272;9.580;2022-12-18T13:15:22;-0.10;99.90
21167;DHT22;10741;52.272;9.580;2022-12-18T13:17:48;-0.10;99.90
21167;DHT22;10741;52.272;9.580;2022-12-18T13:20:15;-0.20;99.90
21167;DHT22;10741;52.272;9.580;2022-12-18T13:22:47;-0.20;99.90
21167;DHT22;10741;52.272;9.580;2022-12-18T13:25:33;-0.20;99.90
21167;DHT22;10741;52.272;9.580;2022-12-18T13:28:05;-0.20;99.90
21167;DHT22;10741;52.272;9.580;2022-12-18T13:38:35;-0.30;99.90
21167;DHT22;10741;52.272;9.580;2022-12-18T13:41:22;-0.30;99.90
21167;DHT22;10741;52.272;9.580;2022-12-18T13:43:53;-0.40;99.90
21167;DHT22;10741;52.272;9.580;2022-12-18T13:46:29;-0.40;99.90
21167;DHT22;10741;52.272;9.580;2022-12-18T13:51:44;-0.40;99.90
21167;DHT22;10741;52.272;9.580;2022-12-18T13:56:48;-0.40;99.90
21167;DHT22;10741;52.272;9.580;2022-12-18T14:06:47;-0.50;99.90
21167;DHT22;10741;52.272;9.580;2022-12-18T14:09:27;-0.50;99.90
21167;DHT22;10741;52.272;9.580;2022-12-18T14:11:54;-0.50;99.90
21167;DHT22;10741;52.272;9.580;2022-12-18T14:14:49;-0.50;99.90
21167;DHT22;10741;52.272;9.580;2022-12-18T14:17:16;-0.60;99.90
21167;DHT22;10741;52.272;9.580;2022-12-18T14:19:47;-0.70;99.90
21167;DHT22;10741;52.272;9.580;2022-12-18T14:22:20;-0.80;99.90
21167;DHT22;10741;52.272;9.580;2022-12-18T14:24:47;-0.80;99.90
21167;DHT22;10741;52.272;9.580;2022-12-18T14:27:25;-0.90;99.90
21167;DHT22;10741;52.272;9.580;2022-12-18T14:29:51;-0.90;99.90
21167;DHT22;10741;52.272;9.580;2022-12-18T14:32:19;-1.00;99.90
21167;DHT22;10741;52.272;9.580;2022-12-18T14:34:48;-1.00;99.90
21167;DHT22;10741;52.272;9.580;2022-12-18T14:37:17;-1.00;99.90
21167;DHT22;10741;52.272;9.580;2022-12-18T14:40:12;-0.90;99.90
21167;DHT22;10741;52.272;9.580;2022-12-18T14:42:39;-0.90;99.90
21167;DHT22;10741;52.272;9.580;2022-12-18T14:45:34;-0.90;99.90
21167;DHT22;10741;52.272;9.580;2022-12-18T14:48:00;-0.90;99.90
21167;DHT22;10741;52.272;9.580;2022-12-18T14:50:26;-0.90;99.90
21167;DHT22;10741;52.272;9.580;2022-12-18T14:52:52;-0.90;99.90
21167;DHT22;10741;52.272;9.580;2022-12-18T14:55:19;-0.90;99.90
21167;DHT22;10741;52.272;9.580;2022-12-18T14:57:46;-1.00;99.90
21167;DHT22;10741;52.272;9.580;2022-12-18T15:00:20;-1.00;99.90
21167;DHT22;10741;52.272;9.580;2022-12-18T15:02:56;-0.90;99.90
21167;DHT22;10741;52.272;9.580;2022-12-18T15:05:30;-0.90;99.90
21167;DHT22;10741;52.272;9.580;2022-12-18T15:07:58;-0.80;99.90
21167;DHT22;10741;52.272;9.580;2022-12-18T15:10:34;-0.80;99.90
21167;DHT22;10741;52.272;9.580;2022-12-18T15:17:59;-0.80;99.90
21167;DHT22;10741;52.272;9.580;2022-12-18T15:20:25;-0.80;99.90
21167;DHT22;10741;52.272;9.580;2022-12-18T15:22:51;-0.70;99.90
21167;DHT22;10741;52.272;9.580;2022-12-18T15:27:52;-0.80;99.90
21167;DHT22;10741;52.272;9.580;2022-12-18T15:30:24;-0.80;99.90
21167;DHT22;10741;52.272;9.580;2022-12-18T15:32:50;-0.80;99.90
21167;DHT22;10741;52.272;9.580;2022-12-18T15:35:20;-0.80;99.90
21167;DHT22;10741;52.272;9.580;2022-12-18T15:37:47;-0.90;99.90
21167;DHT22;10741;52.272;9.580;2022-12-18T15:40:19;-0.90;99.90
21167;DHT22;10741;52.272;9.580;2022-12-18T15:42:45;-0.90;99.90
21167;DHT22;10741;52.272;9.580;2022-12-18T15:45:30;-0.90;99.90
21167;DHT22;10741;52.272;9.580;2022-12-18T15:47:56;-0.90;99.90
21167;DHT22;10741;52.272;9.580;2022-12-18T15:50:22;-0.90;99.90
21167;DHT22;10741;52.272;9.580;2022-12-18T15:52:51;-0.90;99.90
21167;DHT22;10741;52.272;9.580;2022-12-18T15:55:20;-0.90;99.90
21167;DHT22;10741;52.272;9.580;2022-12-18T15:58:06;-0.90;99.90
21167;DHT22;10741;52.272;9.580;2022-12-18T16:00:34;-1.00;99.90
21167;DHT22;10741;52.272;9.580;2022-12-18T16:03:00;-1.00;99.90
21167;DHT22;10741;52.272;9.580;2022-12-18T16:05:27;-1.00;99.90
21167;DHT22;10741;52.272;9.580;2022-12-18T16:07:53;-1.00;99.90
21167;DHT22;10741;52.272;9.580;2022-12-18T16:10:19;-1.00;99.90
21167;DHT22;10741;52.272;9.580;2022-12-18T16:12:45;-0.90;99.90
21167;DHT22;10741;52.272;9.580;2022-12-18T16:15:13;-1.00;99.90
21167;DHT22;10741;52.272;9.580;2022-12-18T16:17:43;-1.00;99.90
21167;DHT22;10741;52.272;9.580;2022-12-18T16:20:14;-1.00;99.90
21167;DHT22;10741;52.272;9.580;2022-12-18T16:22:41;-1.00;99.90
21167;DHT22;10741;52.272;9.580;2022-12-18T16:25:21;-0.90;99.90
21167;DHT22;10741;52.272;9.580;2022-12-18T16:27:47;-0.90;99.90
21167;DHT22;10741;52.272;9.580;2022-12-18T16:30:17;-0.90;99.90
21167;DHT22;10741;52.272;9.580;2022-12-18T16:32:44;-0.90;99.90
21167;DHT22;10741;52.272;9.580;2022-12-18T16:35:14;-0.90;99.90
21167;DHT22;10741;52.272;9.580;2022-12-18T16:37:40;-0.80;99.90
21167;DHT22;10741;52.272;9.580;2022-12-18T16:40:09;-0.80;99.90
21167;DHT22;10741;52.272;9.580;2022-12-18T16:42:40;-0.70;99.90
21167;DHT22;10741;52.272;9.580;2022-12-18T16:45:08;-0.70;99.90
21167;DHT22;10741;52.272;9.580;2022-12-18T16:47:34;-0.70;99.90
21167;DHT22;10741;52.272;9.580;2022-12-18T16:50:00;-0.70;99.90
21167;DHT22;10741;52.272;9.580;2022-12-18T16:52:26;-0.60;99.90
21167;DHT22;10741;52.272;9.580;2022-12-18T16:54:52;-0.60;99.90
21167;DHT22;10741;52.272;9.580;2022-12-18T16:57:19;-0.60;99.90
21167;DHT22;10741;52.272;9.580;2022-12-18T16:59:46;-0.60;99.90
21167;DHT22;10741;52.272;9.580;2022-12-18T17:02:13;-0.60;99.90
21167;DHT22;10741;52.272;9.580;2022-12-18T17:04:40;-0.50;99.90
21167;DHT22;10741;52.272;9.580;2022-12-18T17:07:07;-0.50;99.90
21167;DHT22;10741;52.272;9.580;2022-12-18T17:09:33;-0.50;99.90
21167;DHT22;10741;52.272;9.580;2022-12-18T17:11:59;-0.50;99.90
21167;DHT22;10741;52.272;9.580;2022-12-18T17:14:25;-0.40;99.90
21167;DHT22;10741;52.272;9.580;2022-12-18T17:16:52;-0.40;99.90
21167;DHT22;10741;52.272;9.580;2022-12-18T17:19:18;-0.50;99.90
21167;DHT22;10741;52.272;9.580;2022-12-18T17:21:47;-0.50;99.90
21167;DHT22;10741;52.272;9.580;2022-12-18T17:24:12;-0.50;99.90
21167;DHT22;10741;52.272;9.580;2022-12-18T17:26:38;-0.60;99.90
21167;DHT22;10741;52.272;9.580;2022-12-18T17:29:04;-0.50;99.90
21167;DHT22;10741;52.272;9.580;2022-12-18T17:31:30;-0.50;99.90
21167;DHT22;10741;52.272;9.580;2022-12-18T17:33:57;-0.50;99.90
21167;DHT22;10741;52.272;9.580;2022-12-18T17:36:23;-0.50;99.90
21167;DHT22;10741;52.272;9.580;2022-12-18T17:38:55;-0.50;99.90
21167;DHT22;10741;52.272;9.580;2022-12-18T17:41:21;-0.50;99.90
21167;DHT22;10741;52.272;9.580;2022-12-18T17:43:55;-0.50;99.90
21167;DHT22;10741;52.272;9.580;2022-12-18T17:46:22;-0.50;99.90
21167;DHT22;10741;52.272;9.580;2022-12-18T17:48:48;-0.50;99.90
21167;DHT22;10741;52.272;9.580;2022-12-18T17:51:15;-0.50;99.90